createdAt,value
2019-01-19T00:01:53.777Z,8.90
2019-01-19T00:05:10.392Z,12.82
2019-01-19T00:07:48.123Z,10.38
2019-01-19T00:11:04.586Z,10.03
2019-01-19T00:13:45.195Z,9.35
2019-01-19T00:16:42.822Z,9.15
2019-01-19T00:19:47.871Z,10.20
2019-01-19T00:22:53.799Z,10.60
2019-01-19T00:26:04.074Z,11.20
2019-01-19T00:28:41.061Z,13.53
2019-01-19T00:31:16.443Z,10.88
2019-01-19T00:34:33.816Z,9.95
2019-01-19T00:37:14.080Z,9.50
2019-01-19T00:40:29.519Z,14.75
2019-01-19T00:43:04.046Z,10.78
2019-01-19T00:46:15.366Z,13.13
2019-01-19T00:49:16.238Z,13.35
2019-01-19T00:52:27.190Z,9.33
2019-01-19T00:55:15.891Z,10.45
2019-01-19T00:58:34.202Z,8.88
2019-01-19T01:02:05.863Z,11.93
2019-01-19T01:05:01.907Z,10.18
2019-01-19T01:08:01.434Z,9.63
2019-01-19T01:10:51.841Z,10.53
2019-01-19T01:14:04.008Z,8.65
2019-01-19T01:16:59.759Z,7.97
2019-01-19T01:19:56.979Z,12.60
2019-01-19T01:22:53.546Z,10.08
2019-01-19T01:26:09.666Z,9.78
2019-01-19T01:29:18.352Z,11.65
2019-01-19T01:32:16.046Z,6.92
2019-01-19T01:35:13.818Z,12.13
2019-01-19T01:37:51.791Z,11.40
2019-01-19T01:41:07.577Z,10.55
2019-01-19T01:44:15.062Z,7.83
2019-01-19T01:47:31.286Z,13.22
2019-01-19T01:50:30.778Z,8.03
2019-01-19T01:53:49.609Z,7.70
2019-01-19T01:56:18.517Z,8.38
2019-01-19T01:59:18.658Z,10.35
2019-01-19T02:02:22.816Z,8.93
2019-01-19T02:05:40.031Z,10.38
2019-01-19T02:08:19.890Z,69.95
2019-01-19T02:11:33.434Z,60.78
2019-01-19T02:14:43.487Z,43.63
2019-01-19T02:18:08.290Z,42.75
2019-01-19T02:20:50.775Z,40.12
2019-01-19T02:23:49.590Z,30.00
2019-01-19T02:26:44.042Z,21.05
2019-01-19T02:29:48.462Z,17.82
2019-01-19T02:32:36.961Z,17.25
2019-01-19T02:36:02.487Z,18.55
2019-01-19T02:39:06.675Z,17.50
2019-01-19T02:41:51.047Z,13.25
2019-01-19T02:45:16.643Z,15.93
2019-01-19T02:48:21.590Z,12.85
2019-01-19T02:51:01.810Z,10.15
2019-01-19T02:54:08.336Z,17.50
2019-01-19T02:56:59.850Z,12.03
2019-01-19T02:59:47.174Z,15.05
2019-01-19T03:02:26.792Z,12.63
2019-01-19T03:05:56.846Z,13.05
2019-01-19T03:09:06.703Z,10.63
2019-01-19T03:12:18.646Z,11.83
2019-01-19T03:14:58.538Z,9.50
2019-01-19T03:18:04.018Z,10.20
2019-01-19T03:20:44.458Z,7.83
2019-01-19T03:23:27.687Z,10.23
2019-01-19T03:26:21.348Z,12.70
2019-01-19T03:29:36.105Z,10.65
2019-01-19T03:32:27.195Z,6.83
2019-01-19T03:35:10.153Z,7.33
2019-01-19T03:38:11.462Z,12.00
2019-01-19T03:41:29.932Z,8.53
2019-01-19T03:44:35.522Z,9.45
2019-01-19T03:47:45.472Z,8.33
2019-01-19T03:51:07.564Z,9.68
2019-01-19T03:54:05.027Z,10.30
2019-01-19T03:56:51.759Z,6.87
2019-01-19T04:00:02.199Z,10.55
2019-01-19T04:03:16.920Z,7.35
2019-01-19T04:06:14.484Z,10.18
2019-01-19T04:09:21.676Z,8.10
2019-01-19T04:12:24.019Z,6.95
2019-01-19T04:15:16.989Z,8.28
2019-01-19T04:18:26.623Z,8.15
2019-01-19T04:22:01.639Z,8.93
2019-01-19T04:24:46.238Z,8.08
2019-01-19T04:27:14.848Z,5.83
2019-01-19T04:29:43.430Z,5.80
2019-01-19T04:32:12.267Z,5.30
2019-01-19T04:34:40.999Z,10.70
2019-01-19T04:37:09.520Z,7.40
2019-01-19T04:39:38.099Z,7.30
2019-01-19T04:42:07.048Z,6.62
2019-01-19T04:44:35.714Z,8.68
2019-01-19T04:47:04.266Z,10.53
2019-01-19T04:49:32.866Z,7.87
2019-01-19T04:52:01.415Z,6.53
2019-01-19T04:54:29.986Z,8.43
2019-01-19T04:56:58.573Z,6.30
2019-01-19T04:59:27.494Z,6.75
2019-01-19T05:01:56.687Z,7.55
2019-01-19T05:04:25.585Z,5.12
2019-01-19T05:06:54.151Z,7.45
2019-01-19T05:09:22.715Z,9.28
2019-01-19T05:11:51.298Z,7.80
2019-01-19T05:14:19.883Z,6.05
2019-01-19T05:16:48.548Z,4.65
2019-01-19T05:19:17.164Z,6.55
2019-01-19T05:21:45.758Z,6.95
2019-01-19T05:24:14.326Z,5.70
2019-01-19T05:26:42.929Z,10.32
2019-01-19T05:29:11.490Z,8.08
2019-01-19T05:31:40.028Z,8.65
2019-01-19T05:34:08.663Z,6.85
2019-01-19T05:36:38.525Z,9.00
2019-01-19T05:39:08.313Z,7.92
2019-01-19T05:41:37.116Z,5.35
2019-01-19T05:44:05.994Z,10.58
2019-01-19T05:46:34.878Z,8.00
2019-01-19T05:49:03.402Z,7.28
2019-01-19T05:51:32.015Z,7.85
2019-01-19T05:54:01.258Z,7.92
2019-01-19T05:56:29.823Z,6.75
2019-01-19T05:58:58.420Z,5.05
2019-01-19T06:01:28.214Z,7.28
2019-01-19T06:03:56.888Z,8.80
2019-01-19T06:06:25.762Z,4.80
2019-01-19T06:08:54.427Z,6.42
2019-01-19T06:11:23.050Z,5.47
2019-01-19T06:13:51.970Z,6.40
2019-01-19T06:16:20.523Z,7.83
2019-01-19T06:18:49.795Z,7.30
2019-01-19T06:21:20.079Z,9.28
2019-01-19T06:23:48.975Z,7.25
2019-01-19T06:26:18.550Z,7.65
2019-01-19T06:28:47.471Z,7.72
2019-01-19T06:31:16.007Z,9.13
2019-01-19T06:33:44.606Z,8.33
2019-01-19T06:36:13.206Z,6.15
2019-01-19T06:38:41.782Z,8.05
2019-01-19T06:41:10.974Z,6.03
2019-01-19T06:43:39.842Z,6.90
2019-01-19T06:46:08.454Z,10.15
2019-01-19T06:48:37.263Z,9.03
2019-01-19T06:51:05.819Z,8.63
2019-01-19T06:53:34.398Z,5.58
2019-01-19T06:56:04.247Z,11.93
2019-01-19T06:58:32.791Z,6.20
2019-01-19T07:01:01.391Z,7.05
2019-01-19T07:03:29.959Z,6.50
2019-01-19T07:05:58.551Z,7.37
2019-01-19T07:08:27.774Z,9.25
2019-01-19T07:10:56.384Z,10.05
2019-01-19T07:13:25.015Z,6.95
2019-01-19T07:15:53.919Z,9.43
2019-01-19T07:18:22.793Z,7.22
2019-01-19T07:20:51.570Z,9.30
2019-01-19T07:23:20.175Z,6.40
2019-01-19T07:25:49.813Z,7.42
2019-01-19T07:28:18.707Z,11.65
2019-01-19T07:30:47.270Z,6.12
2019-01-19T07:33:15.834Z,7.35
2019-01-19T07:35:44.767Z,8.13
2019-01-19T07:38:13.310Z,6.70
2019-01-19T07:40:41.894Z,6.92
2019-01-19T07:43:13.918Z,11.60
2019-01-19T07:45:42.577Z,6.90
2019-01-19T07:48:11.406Z,7.28
2019-01-19T07:50:40.026Z,6.17
2019-01-19T07:53:09.248Z,7.37
2019-01-19T07:55:37.817Z,10.05
2019-01-19T07:58:06.724Z,9.50
2019-01-19T08:00:35.925Z,10.00
2019-01-19T08:03:04.521Z,10.53
2019-01-19T08:05:33.067Z,6.97
2019-01-19T08:08:01.974Z,8.88
2019-01-19T08:10:30.545Z,10.15
2019-01-19T08:12:59.499Z,12.90
2019-01-19T08:15:29.443Z,10.68
2019-01-19T08:17:58.472Z,13.03
2019-01-19T08:20:27.043Z,23.38
2019-01-19T08:22:55.627Z,17.12
2019-01-19T08:25:24.202Z,12.37
2019-01-19T08:27:52.778Z,8.98
2019-01-19T08:30:23.476Z,8.85
2019-01-19T08:32:52.108Z,9.35
2019-01-19T08:35:20.910Z,9.33
2019-01-19T08:37:49.811Z,11.28
2019-01-19T08:40:20.566Z,6.87
2019-01-19T08:42:54.955Z,7.33
2019-01-19T08:45:24.230Z,8.33
2019-01-19T08:47:53.057Z,10.53
2019-01-19T08:50:21.554Z,7.17
2019-01-19T08:52:50.218Z,6.37
2019-01-19T08:55:19.150Z,7.85
2019-01-19T08:57:48.099Z,9.15
2019-01-19T09:00:16.702Z,8.85
2019-01-19T09:02:45.354Z,9.13
2019-01-19T09:05:13.926Z,8.53
2019-01-19T09:07:42.547Z,9.10
2019-01-19T09:10:12.919Z,7.87
2019-01-19T09:12:41.533Z,8.48
2019-01-19T09:15:12.319Z,7.92
2019-01-19T09:17:40.942Z,7.60
2019-01-19T09:20:11.359Z,8.00
2019-01-19T09:22:39.947Z,10.00
2019-01-19T09:25:10.330Z,7.97
2019-01-19T09:27:38.891Z,9.88
2019-01-19T09:30:14.563Z,8.45
2019-01-19T09:32:43.727Z,46.88
2019-01-19T09:35:12.934Z,45.60
2019-01-19T09:37:41.480Z,15.90
2019-01-19T09:40:11.234Z,10.03
2019-01-19T09:42:39.874Z,7.90
2019-01-19T09:45:08.818Z,6.42
2019-01-19T09:47:37.348Z,6.42
2019-01-19T09:50:07.086Z,10.38
2019-01-19T09:52:35.658Z,8.80
2019-01-19T09:55:05.061Z,8.03
2019-01-19T09:57:34.029Z,9.45
2019-01-19T10:00:03.287Z,8.48
2019-01-19T10:02:31.889Z,8.95
2019-01-19T10:05:01.486Z,9.10
2019-01-19T10:07:30.783Z,7.75
2019-01-19T10:09:59.658Z,9.55
2019-01-19T10:12:28.859Z,10.38
2019-01-19T10:14:57.797Z,9.65
2019-01-19T10:17:26.746Z,7.92
2019-01-19T10:19:56.151Z,6.97
2019-01-19T10:22:25.044Z,9.13
2019-01-19T10:24:53.627Z,8.70
2019-01-19T10:27:22.521Z,7.67
2019-01-19T10:29:51.707Z,8.18
2019-01-19T10:32:20.261Z,8.23
2019-01-19T10:34:48.845Z,7.22
2019-01-19T10:37:17.431Z,9.43
2019-01-19T10:39:46.014Z,5.47
2019-01-19T10:42:14.940Z,7.20
2019-01-19T10:44:43.506Z,6.08
2019-01-19T10:47:12.074Z,5.22
2019-01-19T10:49:40.670Z,5.45
2019-01-19T10:52:09.246Z,5.70
2019-01-19T10:54:37.852Z,5.83
2019-01-19T10:57:06.746Z,6.00
2019-01-19T10:59:35.294Z,6.72
2019-01-19T11:02:04.370Z,5.37
2019-01-19T11:04:32.971Z,7.35
2019-01-19T11:07:01.580Z,6.45
2019-01-19T11:09:30.110Z,7.50
2019-01-19T11:11:59.060Z,5.75
2019-01-19T11:14:27.674Z,6.87
2019-01-19T11:16:56.207Z,5.72
2019-01-19T11:19:24.838Z,4.95
2019-01-19T11:21:53.389Z,4.40
2019-01-19T11:24:22.250Z,5.58
2019-01-19T11:26:50.863Z,4.67
2019-01-19T11:29:19.967Z,5.83
2019-01-19T11:31:48.819Z,5.80
2019-01-19T11:34:17.763Z,5.45
2019-01-19T11:36:46.386Z,4.40
2019-01-19T11:39:14.987Z,6.17
2019-01-19T11:41:43.586Z,5.22
2019-01-19T11:44:12.191Z,7.67
2019-01-19T11:46:40.775Z,4.87
2019-01-19T11:49:09.339Z,3.75
2019-01-19T11:51:37.966Z,10.45
2019-01-19T11:54:06.832Z,6.47
2019-01-19T11:56:35.674Z,5.72
2019-01-19T11:59:04.300Z,6.53
2019-01-19T12:01:33.109Z,7.35
2019-01-19T12:04:01.654Z,6.50
2019-01-19T12:06:30.578Z,4.17
2019-01-19T12:08:59.126Z,8.88
2019-01-19T12:11:28.046Z,5.83
2019-01-19T12:13:56.604Z,11.03
2019-01-19T12:16:25.192Z,5.60
2019-01-19T12:18:54.418Z,8.40
2019-01-19T12:21:22.966Z,10.30
2019-01-19T12:23:51.605Z,10.08
2019-01-19T12:26:20.234Z,13.53
2019-01-19T12:28:49.166Z,8.13
2019-01-19T12:31:17.707Z,6.05
2019-01-19T12:33:46.302Z,5.03
2019-01-19T12:36:15.239Z,5.58
2019-01-19T12:38:43.770Z,7.12
2019-01-19T12:41:13.174Z,5.55
2019-01-19T12:43:42.247Z,7.33
2019-01-19T12:46:11.747Z,4.47
2019-01-19T12:48:40.707Z,7.53
2019-01-19T12:51:11.162Z,5.67
2019-01-19T12:53:40.123Z,9.18
2019-01-19T12:56:08.670Z,7.67
2019-01-19T12:58:37.258Z,6.45
2019-01-19T13:01:05.991Z,5.60
2019-01-19T13:03:34.558Z,5.58
2019-01-19T13:06:50.726Z,4.10
2019-01-19T13:09:31.793Z,4.58
2019-01-19T13:12:18.439Z,10.32
2019-01-19T13:14:55.772Z,7.22
2019-01-19T13:18:02.074Z,4.33
2019-01-19T13:21:02.431Z,3.90
2019-01-19T13:24:03.215Z,3.60
2019-01-19T13:27:00.978Z,4.47
2019-01-19T13:30:08.225Z,4.70
2019-01-19T13:33:21.358Z,4.45
2019-01-19T13:36:21.111Z,4.20
2019-01-19T13:39:11.006Z,4.67
2019-01-19T13:42:18.702Z,8.98
2019-01-19T13:45:15.611Z,9.28
2019-01-19T13:48:05.419Z,5.85
2019-01-19T13:51:01.674Z,5.42
2019-01-19T13:54:15.746Z,3.12
2019-01-19T13:57:11.767Z,4.20
2019-01-19T13:59:59.358Z,3.10
2019-01-19T14:02:46.579Z,3.80
2019-01-19T14:05:55.410Z,3.08
2019-01-19T14:08:56.760Z,4.58
2019-01-19T14:11:49.305Z,3.17
2019-01-19T14:14:42.051Z,3.08
2019-01-19T14:17:45.539Z,2.33
2019-01-19T14:21:07.870Z,2.98
2019-01-19T14:24:08.920Z,3.55
2019-01-19T14:27:25.026Z,4.15
2019-01-19T14:30:25.088Z,2.25
2019-01-19T14:33:24.743Z,5.10
2019-01-19T14:36:33.391Z,2.80
2019-01-19T14:39:54.794Z,2.00
2019-01-19T14:43:14.064Z,2.47
2019-01-19T14:46:04.675Z,3.80
2019-01-19T14:49:03.595Z,3.35
2019-01-19T14:51:56.747Z,2.35
2019-01-19T14:54:34.878Z,5.53
2019-01-19T14:57:47.425Z,2.58
2019-01-19T15:00:51.971Z,3.12
2019-01-19T15:03:30.352Z,3.83
2019-01-19T15:06:26.642Z,2.60
2019-01-19T15:09:25.855Z,2.98
2019-01-19T15:12:35.991Z,5.20
2019-01-19T15:15:40.675Z,3.42
2019-01-19T15:18:45.514Z,3.62
2019-01-19T15:22:05.242Z,2.60
2019-01-19T15:25:02.682Z,3.58
2019-01-19T15:27:59.222Z,3.33
2019-01-19T15:30:51.569Z,2.52
2019-01-19T15:33:49.591Z,4.65
2019-01-19T15:36:39.122Z,6.70
2019-01-19T15:39:19.610Z,2.62
2019-01-19T15:42:42.233Z,16.55
2019-01-19T15:46:19.815Z,23.07
2019-01-19T15:49:15.574Z,9.40
2019-01-19T15:52:25.434Z,3.72
2019-01-19T15:55:30.827Z,2.67
2019-01-19T15:58:43.962Z,2.85
2019-01-19T16:01:43.319Z,2.05
2019-01-19T16:04:33.554Z,4.12
2019-01-19T16:07:28.267Z,2.98
2019-01-19T16:10:42.102Z,3.65
2019-01-19T16:13:44.423Z,2.90
2019-01-19T16:16:31.034Z,4.47
2019-01-19T16:19:27.982Z,2.22
2019-01-19T16:22:38.138Z,2.30
2019-01-19T16:25:52.983Z,2.77
2019-01-19T16:28:53.437Z,4.45
2019-01-19T16:31:52.120Z,2.35
2019-01-19T16:34:49.175Z,3.10
2019-01-19T16:37:39.947Z,2.95
2019-01-19T16:40:37.706Z,2.67
2019-01-19T16:43:20.068Z,2.62
2019-01-19T16:46:12.206Z,4.85
2019-01-19T16:49:37.494Z,3.12
2019-01-19T16:52:26.183Z,3.98
2019-01-19T16:55:32.243Z,5.50
2019-01-19T16:58:18.286Z,3.17
2019-01-19T17:01:25.211Z,3.52
2019-01-19T17:04:31.330Z,5.65
2019-01-19T17:07:22.163Z,4.55
2019-01-19T17:10:27.439Z,3.83
2019-01-19T17:13:33.234Z,4.37
2019-01-19T17:16:42.447Z,4.83
2019-01-19T17:19:50.630Z,4.55
2019-01-19T17:22:52.330Z,3.75
2019-01-19T17:26:01.515Z,4.65
2019-01-19T17:28:53.394Z,6.25
2019-01-19T17:32:06.938Z,3.83
2019-01-19T17:35:03.179Z,5.08
2019-01-19T17:37:46.406Z,3.70
2019-01-19T17:41:00.451Z,2.90
2019-01-19T17:43:40.854Z,4.22
2019-01-19T17:46:47.063Z,3.27
2019-01-19T17:49:51.945Z,5.15
2019-01-19T17:52:54.445Z,3.47
2019-01-19T17:56:04.850Z,4.75
2019-01-19T17:58:48.179Z,4.60
2019-01-19T18:01:54.174Z,6.72
2019-01-19T18:04:53.237Z,4.37
2019-01-19T18:07:53.582Z,6.72
2019-01-19T18:10:53.911Z,8.38
2019-01-19T18:14:03.230Z,9.53
2019-01-19T18:17:11.153Z,8.38
2019-01-19T18:20:24.515Z,7.05
2019-01-19T18:23:50.212Z,7.28
2019-01-19T18:26:49.857Z,8.48
2019-01-19T18:29:49.640Z,6.60
2019-01-19T18:32:47.259Z,6.83
2019-01-19T18:35:32.207Z,7.25
2019-01-19T18:38:37.230Z,7.42
2019-01-19T18:41:21.086Z,10.08
2019-01-19T18:44:40.881Z,11.30
2019-01-19T18:47:53.536Z,16.10
2019-01-19T18:50:57.675Z,11.65
2019-01-19T18:54:09.703Z,10.35
2019-01-19T18:57:28.366Z,9.68
2019-01-19T19:00:18.002Z,9.70
2019-01-19T19:03:49.595Z,8.90
2019-01-19T19:07:00.382Z,12.88
2019-01-19T19:10:13.887Z,17.05
2019-01-19T19:13:23.027Z,14.05
2019-01-19T19:16:28.058Z,13.32
2019-01-19T19:19:19.721Z,13.20
2019-01-19T19:22:03.530Z,14.05
2019-01-19T19:25:23.404Z,14.98
2019-01-19T19:28:45.862Z,14.55
2019-01-19T19:31:52.974Z,17.98
2019-01-19T19:35:18.353Z,22.35
2019-01-19T19:38:15.615Z,30.70
2019-01-19T19:41:18.118Z,26.77
2019-01-19T19:44:15.386Z,24.52
2019-01-19T19:47:34.511Z,22.65
2019-01-19T19:50:19.806Z,16.55
2019-01-19T19:52:48.686Z,13.30
2019-01-19T19:55:16.099Z,13.20
2019-01-19T19:57:44.686Z,14.43
2019-01-19T20:00:13.282Z,15.90
2019-01-19T20:02:42.190Z,11.57
2019-01-19T20:05:11.094Z,12.33
2019-01-19T20:07:39.997Z,13.65
2019-01-19T20:10:09.422Z,10.95
2019-01-19T20:12:38.038Z,9.98
2019-01-19T20:15:07.166Z,8.83
2019-01-19T20:17:35.955Z,10.72
2019-01-19T20:20:05.878Z,13.10
2019-01-19T20:22:34.964Z,11.83
2019-01-19T20:25:03.530Z,10.08
2019-01-19T20:27:32.142Z,14.18
2019-01-19T20:30:01.034Z,12.23
2019-01-19T20:32:29.902Z,9.88
2019-01-19T20:34:58.786Z,7.80
2019-01-19T20:37:28.014Z,7.78
2019-01-19T20:39:56.610Z,10.65
2019-01-19T20:42:25.246Z,14.53
2019-01-19T20:44:53.847Z,12.40
2019-01-19T20:47:22.758Z,9.30
2019-01-19T20:49:51.534Z,7.12
2019-01-19T20:52:20.138Z,10.32
2019-01-19T20:54:49.122Z,10.80
2019-01-19T20:57:18.242Z,13.32
2019-01-19T20:59:47.198Z,11.88
2019-01-19T21:02:16.035Z,14.47
2019-01-19T21:04:45.194Z,18.17
2019-01-19T21:07:13.771Z,10.68
2019-01-19T21:09:42.709Z,10.80
2019-01-19T21:12:12.171Z,11.28
2019-01-19T21:14:40.955Z,12.82
2019-01-19T21:17:09.826Z,12.28
2019-01-19T21:19:39.276Z,11.18
2019-01-19T21:22:07.859Z,12.33
2019-01-19T21:24:36.493Z,14.33
2019-01-19T21:27:05.094Z,13.88
2019-01-19T21:29:34.298Z,16.50
2019-01-19T21:32:03.102Z,16.40
2019-01-19T21:34:31.983Z,14.45
2019-01-19T21:37:00.880Z,12.75
2019-01-19T21:39:29.423Z,23.07
2019-01-19T21:41:58.019Z,33.92
2019-01-19T21:44:26.826Z,30.60
2019-01-19T21:46:55.410Z,23.22
2019-01-19T21:49:24.018Z,17.00
2019-01-19T21:51:52.816Z,11.40
2019-01-19T21:54:21.443Z,11.18
2019-01-19T21:56:50.266Z,9.85
2019-01-19T21:59:19.132Z,12.13
2019-01-19T22:01:48.066Z,12.15
2019-01-19T22:04:17.529Z,10.32
2019-01-19T22:06:48.550Z,11.05
2019-01-19T22:09:17.190Z,11.85
2019-01-19T22:11:45.750Z,10.03
2019-01-19T22:14:14.642Z,8.38
2019-01-19T22:16:43.206Z,6.33
2019-01-19T22:19:12.124Z,4.05
2019-01-19T22:21:41.019Z,5.28
2019-01-19T22:24:09.566Z,9.38
2019-01-19T22:26:39.030Z,9.50
2019-01-19T22:29:08.756Z,5.75
2019-01-19T22:31:37.722Z,7.67
2019-01-19T22:34:06.308Z,9.30
2019-01-19T22:36:34.844Z,7.53
2019-01-19T22:39:04.450Z,6.78
2019-01-19T22:41:33.051Z,5.05
2019-01-19T22:44:02.132Z,7.75
2019-01-19T22:46:31.042Z,3.47
2019-01-19T22:48:59.962Z,6.20
2019-01-19T22:51:28.826Z,10.10
2019-01-19T22:53:57.730Z,14.07
2019-01-19T22:56:26.614Z,14.28
2019-01-19T22:58:55.180Z,26.52
2019-01-19T23:01:38.893Z,42.13
2019-01-19T23:04:07.682Z,48.58
2019-01-19T23:06:36.278Z,12.90
2019-01-19T23:09:09.666Z,11.85
2019-01-19T23:11:38.270Z,10.50
2019-01-19T23:14:08.495Z,14.47
2019-01-19T23:16:37.414Z,7.80
2019-01-19T23:19:06.526Z,8.18
2019-01-19T23:21:35.059Z,7.70
2019-01-19T23:24:03.664Z,6.37
2019-01-19T23:26:33.237Z,10.30
2019-01-19T23:29:02.222Z,6.92
2019-01-19T23:31:31.460Z,6.30
2019-01-19T23:34:00.046Z,4.30
2019-01-19T23:36:28.626Z,4.60
2019-01-19T23:38:57.198Z,4.20
2019-01-19T23:41:25.763Z,5.62
2019-01-19T23:43:54.700Z,5.42
2019-01-19T23:46:23.258Z,8.50
2019-01-19T23:48:51.822Z,4.95
2019-01-19T23:51:22.347Z,5.67
2019-01-19T23:53:51.503Z,7.17
2019-01-19T23:56:20.042Z,5.35
2019-01-19T23:58:49.081Z,9.15
